createdAt,value
2023-07-03T00:00:05.783Z,7.43
2023-07-03T00:02:35.910Z,6.10
2023-07-03T00:05:04.721Z,6.53
2023-07-03T00:07:31.712Z,7.20
2023-07-03T00:09:57.983Z,6.40
2023-07-03T00:12:25.028Z,6.20
2023-07-03T00:14:52.155Z,7.03
2023-07-03T00:17:19.305Z,6.30
2023-07-03T00:19:46.589Z,6.67
2023-07-03T00:22:14.007Z,6.50
2023-07-03T00:24:41.186Z,6.90
2023-07-03T00:27:08.413Z,7.30
2023-07-03T00:29:36.078Z,7.30
2023-07-03T00:32:02.889Z,6.63
2023-07-03T00:34:30.231Z,7.13
2023-07-03T00:36:57.130Z,6.20
2023-07-03T00:39:24.510Z,6.87
2023-07-03T00:41:51.470Z,7.30
2023-07-03T00:44:20.577Z,7.00
2023-07-03T00:46:50.068Z,6.73
2023-07-03T00:49:17.746Z,6.87
2023-07-03T00:51:53.959Z,6.30
2023-07-03T00:54:21.366Z,6.90
2023-07-03T00:56:50.742Z,7.03
2023-07-03T00:59:19.216Z,7.77
2023-07-03T01:01:56.882Z,6.27
2023-07-03T01:04:41.097Z,6.80
2023-07-03T01:07:14.431Z,6.43
2023-07-03T01:09:47.956Z,7.10
2023-07-03T01:12:14.992Z,7.37
2023-07-03T01:14:43.041Z,7.57
2023-07-03T01:17:11.928Z,7.53
2023-07-03T01:19:40.949Z,6.40
2023-07-03T01:22:33.876Z,7.20
2023-07-03T01:25:11.423Z,7.17
2023-07-03T01:27:40.983Z,6.70
2023-07-03T01:30:12.946Z,7.13
2023-07-03T01:32:41.459Z,7.63
2023-07-03T01:35:12.956Z,7.80
2023-07-03T01:37:42.378Z,7.27
2023-07-03T01:40:11.639Z,6.57
2023-07-03T01:42:42.517Z,7.03
2023-07-03T01:45:10.685Z,7.40
2023-07-03T01:47:38.572Z,7.67
2023-07-03T01:50:07.474Z,6.90
2023-07-03T01:52:42.462Z,7.60
2023-07-03T01:55:30.262Z,7.80
2023-07-03T01:58:07.947Z,8.07
2023-07-03T02:01:00.561Z,7.90
2023-07-03T02:03:33.745Z,7.80
2023-07-03T02:06:03.301Z,7.93
2023-07-03T02:08:32.131Z,7.90
2023-07-03T02:10:59.435Z,7.10
2023-07-03T02:13:27.066Z,7.63
2023-07-03T02:15:55.682Z,7.73
2023-07-03T02:18:24.817Z,7.40
2023-07-03T02:20:53.038Z,7.53
2023-07-03T02:23:20.917Z,7.70
2023-07-03T02:25:47.785Z,7.00
2023-07-03T02:28:14.454Z,7.10
2023-07-03T02:30:41.677Z,7.10
2023-07-03T02:33:12.471Z,7.87
2023-07-03T02:35:42.808Z,7.33
2023-07-03T02:38:10.866Z,6.77
2023-07-03T02:40:39.830Z,7.57
2023-07-03T02:43:06.803Z,6.53
2023-07-03T02:45:41.414Z,7.37
2023-07-03T02:48:11.179Z,6.90
2023-07-03T02:50:42.935Z,8.43
2023-07-03T02:53:10.593Z,7.10
2023-07-03T02:55:39.034Z,6.50
2023-07-03T02:58:06.148Z,7.77
2023-07-03T03:00:37.107Z,6.93
2023-07-03T03:03:04.327Z,7.50
2023-07-03T03:05:31.028Z,7.57
2023-07-03T03:07:57.787Z,6.63
2023-07-03T03:10:24.883Z,8.33
2023-07-03T03:12:51.591Z,7.70
2023-07-03T03:15:19.928Z,7.57
2023-07-03T03:17:47.178Z,7.20
2023-07-03T03:20:15.223Z,8.10
2023-07-03T03:22:42.983Z,7.10
2023-07-03T03:25:09.838Z,7.40
2023-07-03T03:27:36.267Z,7.70
2023-07-03T03:30:02.797Z,7.53
2023-07-03T03:32:31.883Z,7.07
2023-07-03T03:34:59.668Z,7.17
2023-07-03T03:37:26.518Z,7.23
2023-07-03T03:39:53.363Z,7.40
2023-07-03T03:42:21.312Z,7.73
2023-07-03T03:44:49.575Z,7.97
2023-07-03T03:47:16.519Z,7.47
2023-07-03T03:49:43.552Z,7.37
2023-07-03T03:52:10.226Z,7.53
2023-07-03T03:54:37.342Z,8.17
2023-07-03T03:57:06.796Z,8.70
2023-07-03T03:59:33.789Z,8.23
2023-07-03T04:02:00.471Z,7.50
2023-07-03T04:04:27.625Z,7.73
2023-07-03T04:06:55.282Z,7.70
2023-07-03T04:09:21.813Z,7.13
2023-07-03T04:11:48.511Z,7.90
2023-07-03T04:14:16.341Z,7.53
2023-07-03T04:16:43.706Z,8.60
2023-07-03T04:19:11.197Z,8.00
2023-07-03T04:21:40.720Z,7.57
2023-07-03T04:24:07.909Z,8.20
2023-07-03T04:26:34.879Z,7.90
2023-07-03T04:29:01.627Z,7.30
2023-07-03T04:31:28.446Z,8.57
2023-07-03T04:33:57.037Z,7.07
2023-07-03T04:36:23.720Z,8.10
2023-07-03T04:38:50.424Z,7.77
2023-07-03T04:41:19.014Z,7.20
2023-07-03T04:43:49.920Z,7.57
2023-07-03T04:46:16.589Z,8.90
2023-07-03T04:48:43.188Z,7.90
2023-07-03T04:51:11.970Z,7.70
2023-07-03T04:53:42.165Z,8.03
2023-07-03T04:56:10.222Z,7.30
2023-07-03T04:58:36.858Z,7.20
2023-07-03T05:01:06.169Z,7.30
2023-07-03T05:03:33.620Z,7.40
2023-07-03T05:06:00.317Z,8.10
2023-07-03T05:08:27.477Z,8.10
2023-07-03T05:10:55.339Z,7.90
2023-07-03T05:13:22.351Z,7.60
2023-07-03T05:15:53.961Z,6.80
2023-07-03T05:18:21.245Z,7.43
2023-07-03T05:20:49.548Z,7.27
2023-07-03T05:23:18.675Z,7.77
2023-07-03T05:25:47.522Z,7.10
2023-07-03T05:28:15.077Z,7.30
2023-07-03T05:30:41.397Z,7.00
2023-07-03T05:33:09.200Z,7.80
2023-07-03T05:35:45.189Z,8.20
2023-07-03T05:38:16.896Z,8.03
2023-07-03T05:40:43.538Z,8.20
2023-07-03T05:43:10.462Z,8.17
2023-07-03T05:45:38.506Z,7.80
2023-07-03T05:48:05.946Z,7.30
2023-07-03T05:50:32.673Z,6.90
2023-07-03T05:52:59.305Z,7.13
2023-07-03T05:55:25.854Z,7.60
2023-07-03T05:57:52.568Z,7.80
2023-07-03T06:00:19.517Z,7.60
2023-07-03T06:02:47.366Z,8.10
2023-07-03T06:05:14.972Z,8.30
2023-07-03T06:07:41.744Z,8.10
2023-07-03T06:10:08.944Z,7.83
2023-07-03T06:12:35.798Z,7.27
2023-07-03T06:15:02.877Z,7.17
2023-07-03T06:17:30.877Z,6.90
2023-07-03T06:19:57.755Z,6.57
2023-07-03T06:22:24.730Z,6.70
2023-07-03T06:24:51.527Z,6.43
2023-07-03T06:27:18.349Z,6.90
2023-07-03T06:29:46.502Z,6.47
2023-07-03T06:32:13.085Z,5.63
2023-07-03T06:34:40.497Z,5.70
2023-07-03T06:37:07.399Z,6.20
2023-07-03T06:39:34.490Z,6.17
2023-07-03T06:42:03.534Z,6.00
2023-07-03T06:44:30.488Z,5.77
2023-07-03T06:46:57.836Z,6.17
2023-07-03T06:49:26.468Z,5.53
2023-07-03T06:51:53.602Z,5.60
2023-07-03T06:54:19.888Z,5.80
2023-07-03T06:56:46.534Z,6.13
2023-07-03T06:59:13.378Z,6.77
2023-07-03T07:01:40.518Z,5.60
2023-07-03T07:04:07.059Z,6.50
2023-07-03T07:06:33.750Z,6.13
2023-07-03T07:09:02.555Z,6.10
2023-07-03T07:11:32.258Z,5.70
2023-07-03T07:14:00.659Z,6.53
2023-07-03T07:16:35.319Z,5.60
2023-07-03T07:19:04.718Z,6.77
2023-07-03T07:21:34.677Z,5.67
2023-07-03T07:24:04.624Z,5.83
2023-07-03T07:26:35.055Z,5.80
2023-07-03T07:29:02.382Z,5.27
2023-07-03T07:31:29.559Z,5.77
2023-07-03T07:33:56.548Z,5.10
2023-07-03T07:36:26.037Z,6.23
2023-07-03T07:38:56.732Z,4.70
2023-07-03T07:41:26.739Z,5.37
2023-07-03T07:43:54.471Z,5.73
2023-07-03T07:46:21.939Z,5.23
2023-07-03T07:48:48.962Z,4.83
2023-07-03T07:51:15.959Z,5.53
2023-07-03T07:53:42.536Z,5.83
2023-07-03T07:56:10.355Z,5.63
2023-07-03T07:58:38.065Z,5.43
2023-07-03T08:01:05.288Z,4.93
2023-07-03T08:03:32.494Z,5.00
2023-07-03T08:06:05.143Z,6.17
2023-07-03T08:08:33.050Z,5.90
2023-07-03T08:11:01.698Z,5.83
2023-07-03T08:13:31.049Z,5.90
2023-07-03T08:15:57.774Z,6.63
2023-07-03T08:18:24.640Z,4.50
2023-07-03T08:20:52.445Z,4.80
2023-07-03T08:23:19.788Z,5.70
2023-07-03T08:25:52.081Z,5.30
2023-07-03T08:28:19.469Z,5.40
2023-07-03T08:30:46.426Z,5.20
2023-07-03T08:33:14.496Z,5.13
2023-07-03T08:38:12.267Z,5.43
2023-07-03T08:40:38.876Z,4.97
2023-07-03T08:43:06.981Z,4.67
2023-07-03T08:45:40.009Z,5.00
2023-07-03T08:48:11.797Z,5.57
2023-07-03T08:50:41.141Z,4.90
2023-07-03T08:53:12.981Z,5.60
2023-07-03T08:55:47.346Z,4.70
2023-07-03T08:58:14.598Z,5.70
2023-07-03T09:00:52.738Z,4.43
2023-07-03T09:03:50.793Z,4.70
2023-07-03T09:06:27.435Z,4.47
2023-07-03T09:08:57.594Z,4.90
2023-07-03T09:11:26.492Z,4.20
2023-07-03T09:13:55.399Z,4.63
2023-07-03T09:16:24.321Z,4.47
2023-07-03T09:19:12.628Z,4.37
2023-07-03T09:21:40.005Z,4.70
2023-07-03T09:24:26.043Z,4.50
2023-07-03T09:27:10.620Z,4.03
2023-07-03T09:29:37.830Z,4.00
2023-07-03T09:32:05.187Z,4.20
2023-07-03T09:35:00.714Z,4.13
2023-07-03T09:37:28.992Z,3.97
2023-07-03T09:39:56.272Z,3.60
2023-07-03T09:42:24.163Z,3.70
2023-07-03T09:44:51.430Z,3.80
2023-07-03T09:47:23.129Z,3.87
2023-07-03T09:49:50.370Z,3.30
2023-07-03T09:52:17.358Z,3.90
2023-07-03T09:54:45.650Z,3.80
2023-07-03T09:57:27.083Z,4.17
2023-07-03T10:00:13.261Z,4.00
2023-07-03T10:07:48.507Z,3.60
2023-07-03T10:12:59.745Z,3.53
2023-07-03T10:15:28.900Z,3.30
2023-07-03T10:18:02.061Z,4.03
2023-07-03T10:20:33.966Z,3.93
2023-07-03T10:23:04.429Z,3.87
2023-07-03T10:25:35.004Z,3.40
2023-07-03T10:28:08.076Z,4.27
2023-07-03T10:30:37.335Z,3.97
2023-07-03T10:33:12.824Z,3.67
2023-07-03T10:35:42.433Z,3.70
2023-07-03T10:38:31.168Z,3.57
2023-07-03T10:41:00.935Z,2.90
2023-07-03T10:43:30.477Z,3.33
2023-07-03T10:45:59.018Z,3.33
2023-07-03T10:48:29.245Z,3.40
2023-07-03T10:51:18.406Z,3.67
2023-07-03T10:53:47.008Z,3.67
2023-07-03T10:56:44.640Z,3.47
2023-07-03T10:59:16.955Z,3.20
2023-07-03T11:01:52.785Z,3.60
2023-07-03T11:04:52.520Z,3.53
2023-07-03T11:07:34.321Z,3.77
2023-07-03T11:10:28.689Z,3.40
2023-07-03T11:13:04.325Z,3.43
2023-07-03T11:16:06.980Z,3.37
2023-07-03T11:24:12.363Z,3.07
2023-07-03T11:29:11.714Z,3.00
2023-07-03T11:31:41.364Z,2.80
2023-07-03T11:36:51.275Z,2.60
2023-07-03T11:44:35.560Z,3.20
2023-07-03T11:47:09.597Z,3.47
2023-07-03T11:49:40.724Z,2.90
2023-07-03T11:52:07.707Z,3.40
2023-07-03T11:54:36.552Z,3.70
2023-07-03T11:57:33.610Z,2.87
2023-07-03T12:00:20.681Z,3.73
2023-07-03T12:02:51.833Z,3.87
2023-07-03T12:05:43.563Z,3.47
2023-07-03T12:08:19.744Z,3.40
2023-07-03T12:10:56.143Z,3.90
2023-07-03T12:13:41.624Z,4.40
2023-07-03T12:16:32.397Z,3.37
2023-07-03T12:19:08.556Z,3.77
2023-07-03T12:21:45.349Z,3.30
2023-07-03T12:24:21.070Z,3.40
2023-07-03T12:26:59.109Z,3.60
2023-07-03T12:29:25.755Z,3.67
2023-07-03T12:32:06.653Z,3.30
2023-07-03T12:34:43.514Z,3.27
2023-07-03T12:37:16.165Z,2.63
2023-07-03T12:39:47.093Z,3.30
2023-07-03T12:42:23.038Z,3.17
2023-07-03T12:44:50.822Z,3.40
2023-07-03T12:47:19.224Z,3.13
2023-07-03T12:49:49.986Z,3.03
2023-07-03T12:52:16.751Z,3.00
2023-07-03T12:54:43.356Z,3.23
2023-07-03T12:57:10.452Z,3.10
2023-07-03T12:59:37.170Z,3.60
2023-07-03T13:02:04.133Z,3.37
2023-07-03T13:04:33.145Z,3.03
2023-07-03T13:07:00.152Z,3.57
2023-07-03T13:09:28.138Z,4.00
2023-07-03T13:11:55.079Z,3.20
2023-07-03T13:14:27.723Z,3.60
2023-07-03T13:16:58.600Z,3.33
2023-07-03T13:19:36.368Z,3.33
2023-07-03T13:22:08.525Z,3.50
2023-07-03T13:24:43.689Z,3.80
2023-07-03T13:27:23.074Z,3.93
2023-07-03T13:29:49.819Z,3.47
2023-07-03T13:32:19.136Z,3.67
2023-07-03T13:35:09.463Z,3.53
2023-07-03T13:37:39.801Z,3.97
2023-07-03T13:40:07.580Z,3.77
2023-07-03T13:42:34.528Z,3.10
2023-07-03T13:45:01.150Z,3.47
2023-07-03T13:47:29.278Z,3.30
2023-07-03T13:49:56.640Z,2.80
2023-07-03T13:52:23.270Z,2.90
2023-07-03T13:54:50.218Z,4.10
2023-07-03T13:57:16.762Z,2.87
2023-07-03T13:59:43.338Z,3.90
2023-07-03T14:02:10.405Z,3.00
2023-07-03T14:04:37.213Z,3.57
2023-07-03T14:07:04.289Z,3.10
2023-07-03T14:09:32.196Z,3.23
2023-07-03T14:11:58.798Z,3.10
2023-07-03T14:14:25.511Z,3.30
2023-07-03T14:16:53.628Z,3.53
2023-07-03T14:19:20.454Z,3.07
2023-07-03T14:21:47.167Z,3.53
2023-07-03T14:24:13.689Z,2.80
2023-07-03T14:26:40.447Z,3.60
2023-07-03T14:29:07.762Z,3.77
2023-07-03T14:31:34.830Z,3.40
2023-07-03T14:34:01.824Z,3.07
2023-07-03T14:36:28.518Z,3.93
2023-07-03T14:38:56.328Z,3.93
2023-07-03T14:41:23.220Z,3.47
2023-07-03T14:43:50.646Z,4.00
2023-07-03T14:46:17.355Z,3.00
2023-07-03T14:48:43.974Z,3.53
2023-07-03T14:51:10.532Z,2.70
2023-07-03T14:53:37.151Z,2.87
2023-07-03T14:56:04.134Z,3.27
2023-07-03T14:58:30.861Z,3.13
2023-07-03T15:01:01.808Z,3.83
2023-07-03T15:03:30.432Z,3.93
2023-07-03T15:05:57.102Z,3.60
2023-07-03T15:08:23.833Z,2.77
2023-07-03T15:10:50.672Z,3.70
2023-07-03T15:13:17.225Z,3.20
2023-07-03T15:15:51.143Z,3.27
2023-07-03T15:18:18.123Z,3.10
2023-07-03T15:20:46.900Z,3.27
2023-07-03T15:23:15.749Z,3.27
2023-07-03T15:25:42.968Z,3.30
2023-07-03T15:28:09.554Z,2.93
2023-07-03T15:30:39.783Z,3.50
2023-07-03T15:33:06.639Z,3.07
2023-07-03T15:35:33.671Z,2.87
2023-07-03T15:38:00.254Z,3.60
2023-07-03T15:40:26.727Z,3.80
2023-07-03T15:42:54.302Z,2.90
2023-07-03T15:45:23.462Z,3.17
2023-07-03T15:47:50.420Z,2.33
2023-07-03T15:50:17.136Z,2.90
2023-07-03T15:52:44.022Z,3.33
2023-07-03T15:55:10.977Z,3.50
2023-07-03T15:57:37.462Z,3.10
2023-07-03T16:00:04.286Z,3.70
2023-07-03T16:02:32.351Z,3.10
2023-07-03T16:04:59.117Z,4.20
2023-07-03T16:07:25.626Z,3.37
2023-07-03T16:09:52.461Z,3.03
2023-07-03T16:12:19.526Z,3.50
2023-07-03T16:14:48.187Z,3.43
2023-07-03T16:17:15.522Z,3.80
2023-07-03T16:19:44.746Z,3.20
2023-07-03T16:22:11.469Z,4.17
2023-07-03T16:24:38.027Z,4.73
2023-07-03T16:27:04.961Z,3.60
2023-07-03T16:29:32.002Z,4.00
2023-07-03T16:31:58.498Z,3.00
2023-07-03T16:34:25.095Z,3.10
2023-07-03T16:36:51.508Z,3.50
2023-07-03T16:39:18.147Z,3.37
2023-07-03T16:41:45.076Z,3.40
2023-07-03T16:44:11.597Z,2.90
2023-07-03T16:46:40.081Z,3.73
2023-07-03T16:49:07.386Z,3.60
2023-07-03T16:51:33.972Z,3.00
2023-07-03T16:54:01.644Z,3.47
2023-07-03T16:56:28.699Z,3.20
2023-07-03T16:58:58.480Z,3.40
2023-07-03T17:01:27.395Z,3.83
2023-07-03T17:03:54.568Z,3.97
2023-07-03T17:06:23.609Z,2.90
2023-07-03T17:08:50.492Z,4.07
2023-07-03T17:11:17.192Z,3.63
2023-07-03T17:13:45.332Z,3.30
2023-07-03T17:16:13.649Z,3.20
2023-07-03T17:18:43.214Z,3.30
2023-07-03T17:21:10.951Z,3.10
2023-07-03T17:23:38.134Z,3.57
2023-07-03T17:26:05.047Z,2.93
2023-07-03T17:28:32.065Z,3.60
2023-07-03T17:30:59.167Z,3.90
2023-07-03T17:33:27.367Z,3.43
2023-07-03T17:35:55.459Z,3.67
2023-07-03T17:38:23.490Z,3.40
2023-07-03T17:40:50.512Z,3.73
2023-07-03T17:43:24.325Z,3.67
2023-07-03T17:45:55.096Z,3.63
2023-07-03T17:48:22.837Z,3.93
2023-07-03T17:50:51.129Z,3.60
2023-07-03T17:53:18.114Z,3.97
2023-07-03T17:55:45.719Z,3.33
2023-07-03T17:58:12.480Z,3.00
2023-07-03T18:00:39.529Z,3.60
2023-07-03T18:03:06.366Z,4.00
2023-07-03T18:05:36.824Z,3.43
2023-07-03T18:08:04.044Z,4.00
2023-07-03T18:10:32.135Z,3.60
2023-07-03T18:12:59.042Z,3.73
2023-07-03T18:15:39.198Z,3.83
2023-07-03T18:18:12.657Z,3.20
2023-07-03T18:20:39.180Z,3.10
2023-07-03T18:23:05.866Z,3.87
2023-07-03T18:25:35.238Z,3.97
2023-07-03T18:28:02.054Z,4.33
2023-07-03T18:30:28.544Z,3.47
2023-07-03T18:32:55.037Z,3.67
2023-07-03T18:35:21.711Z,2.90
2023-07-03T18:37:48.484Z,3.67
2023-07-03T18:40:15.277Z,3.50
2023-07-03T18:42:42.809Z,4.00
2023-07-03T18:45:09.444Z,3.47
2023-07-03T18:47:36.405Z,3.27
2023-07-03T18:50:02.939Z,2.87
2023-07-03T18:52:29.802Z,3.90
2023-07-03T18:54:56.772Z,4.20
2023-07-03T18:57:23.781Z,3.83
2023-07-03T18:59:50.320Z,4.70
2023-07-03T19:02:17.432Z,4.90
2023-07-03T19:04:46.155Z,6.27
2023-07-03T19:07:14.177Z,5.00
2023-07-03T19:09:40.825Z,5.13
2023-07-03T19:12:07.866Z,3.87
2023-07-03T19:14:35.361Z,5.17
2023-07-03T19:17:02.284Z,3.90
2023-07-03T19:19:28.867Z,4.27
2023-07-03T19:21:55.374Z,4.17
2023-07-03T19:24:21.873Z,3.93
2023-07-03T19:26:48.519Z,4.90
2023-07-03T19:29:15.326Z,3.60
2023-07-03T19:31:43.388Z,3.67
2023-07-03T19:34:12.285Z,4.23
2023-07-03T19:36:38.849Z,4.07
2023-07-03T19:39:05.512Z,3.43
2023-07-03T19:41:32.053Z,4.53
2023-07-03T19:43:58.863Z,4.40
2023-07-03T19:46:27.876Z,3.90
2023-07-03T19:48:56.321Z,3.53
2023-07-03T19:51:23.680Z,3.70
2023-07-03T19:56:34.635Z,4.10
2023-07-03T19:59:01.333Z,5.13
2023-07-03T20:01:28.021Z,3.97
2023-07-03T20:03:54.919Z,4.43
2023-07-03T20:06:24.441Z,4.07
2023-07-03T20:08:55.055Z,4.73
2023-07-03T20:11:21.951Z,3.70
2023-07-03T20:13:51.277Z,4.50
2023-07-03T20:16:19.521Z,4.17
2023-07-03T20:18:53.237Z,4.93
2023-07-03T20:21:20.249Z,4.10
2023-07-03T20:23:47.828Z,4.87
2023-07-03T20:26:14.463Z,4.80
2023-07-03T20:28:41.034Z,4.37
2023-07-03T20:31:13.500Z,4.20
2023-07-03T20:33:40.539Z,4.50
2023-07-03T20:36:12.411Z,4.87
2023-07-03T20:38:39.720Z,4.70
2023-07-03T20:41:08.493Z,5.40
2023-07-03T20:43:36.135Z,4.43
2023-07-03T20:46:09.018Z,5.70
2023-07-03T20:48:38.675Z,4.60
2023-07-03T20:51:13.129Z,4.40
2023-07-03T20:53:49.644Z,4.83
2023-07-03T20:56:17.610Z,4.20
2023-07-03T20:58:45.860Z,4.80
2023-07-03T21:01:20.894Z,4.10
2023-07-03T21:03:50.147Z,4.23
2023-07-03T21:06:19.733Z,4.10
2023-07-03T21:08:47.321Z,3.93
2023-07-03T21:11:17.887Z,4.13
2023-07-03T21:13:47.666Z,5.37
2023-07-03T21:16:16.788Z,4.50
2023-07-03T21:18:43.484Z,3.90
2023-07-03T21:21:09.948Z,4.30
2023-07-03T21:23:36.939Z,4.37
2023-07-03T21:26:03.561Z,4.90
2023-07-03T21:28:30.033Z,4.80
2023-07-03T21:30:56.602Z,5.27
2023-07-03T21:33:23.760Z,4.50
2023-07-03T21:35:52.413Z,4.40
2023-07-03T21:38:19.849Z,4.60
2023-07-03T21:40:56.695Z,4.23
2023-07-03T21:43:24.973Z,4.20
2023-07-03T21:46:12.995Z,4.30
2023-07-03T21:48:42.187Z,4.53
2023-07-03T21:51:13.972Z,4.50
2023-07-03T21:53:40.933Z,4.77
2023-07-03T21:56:25.364Z,4.17
2023-07-03T21:58:55.014Z,4.67
2023-07-03T22:01:31.399Z,5.10
2023-07-03T22:03:59.486Z,4.10
2023-07-03T22:06:27.459Z,5.70
2023-07-03T22:08:54.662Z,4.13
2023-07-03T22:11:21.740Z,4.60
2023-07-03T22:13:48.356Z,4.43
2023-07-03T22:16:18.840Z,4.33
2023-07-03T22:18:46.274Z,3.87
2023-07-03T22:21:13.763Z,3.80
2023-07-03T22:23:41.089Z,4.40
2023-07-03T22:26:08.093Z,3.90
2023-07-03T22:28:34.762Z,4.70
2023-07-03T22:31:01.537Z,4.30
2023-07-03T22:33:29.506Z,4.87
2023-07-03T22:35:56.322Z,4.20
2023-07-03T22:38:23.293Z,3.80
2023-07-03T22:40:51.436Z,4.50
2023-07-03T22:43:19.303Z,4.30
2023-07-03T22:45:46.169Z,4.10
2023-07-03T22:48:12.821Z,4.67
2023-07-03T22:50:41.128Z,4.27
2023-07-03T22:53:09.801Z,4.43
2023-07-03T22:55:41.341Z,3.83
2023-07-03T22:58:10.376Z,4.10
2023-07-03T23:00:39.550Z,4.87
2023-07-03T23:03:24.904Z,4.77
2023-07-03T23:06:10.095Z,4.10
2023-07-03T23:08:37.576Z,4.20
2023-07-03T23:11:07.448Z,4.30
2023-07-03T23:13:34.317Z,3.53
2023-07-03T23:16:05.910Z,4.70
2023-07-03T23:18:36.434Z,4.57
2023-07-03T23:21:07.967Z,3.80
2023-07-03T23:23:35.255Z,5.10
2023-07-03T23:26:07.085Z,4.10
2023-07-03T23:28:36.108Z,4.57
2023-07-03T23:31:09.014Z,4.37
2023-07-03T23:33:36.906Z,4.40
2023-07-03T23:36:10.869Z,4.10
2023-07-03T23:38:38.526Z,4.30
2023-07-03T23:41:09.487Z,4.27
2023-07-03T23:43:38.020Z,4.33
2023-07-03T23:46:07.466Z,4.30
2023-07-03T23:48:34.421Z,4.43
2023-07-03T23:51:04.123Z,4.20
2023-07-03T23:53:35.678Z,4.30
2023-07-03T23:56:07.780Z,3.93
2023-07-03T23:58:37.174Z,4.00
